createdAt,value
2023-02-11T00:00:36.159Z,79.13
2023-02-11T00:01:36.060Z,79.03
2023-02-11T00:02:36.221Z,79.03
2023-02-11T00:03:36.255Z,78.92
2023-02-11T00:04:36.094Z,78.71
2023-02-11T00:05:36.169Z,78.71
2023-02-11T00:06:35.957Z,78.82
2023-02-11T00:07:36.129Z,78.92
2023-02-11T00:08:35.969Z,78.92
2023-02-11T00:09:36.185Z,78.82
2023-02-11T00:10:35.910Z,79.03
2023-02-11T00:11:36.158Z,79.24
2023-02-11T00:12:35.899Z,79.45
2023-02-11T00:13:35.967Z,79.55
2023-02-11T00:14:35.909Z,79.77
2023-02-11T00:15:35.980Z,79.87
2023-02-11T00:16:35.924Z,80.08
2023-02-11T00:17:35.984Z,80.40
2023-02-11T00:18:35.825Z,80.75
2023-02-11T00:19:36.063Z,80.96
2023-02-11T00:20:35.777Z,81.16
2023-02-11T00:21:35.986Z,81.70
2023-02-11T00:22:35.758Z,82.11
2023-02-11T00:23:35.938Z,82.01
2023-02-11T00:24:35.763Z,81.70
2023-02-11T00:25:35.841Z,81.48
2023-02-11T00:26:36.016Z,81.27
2023-02-11T00:27:35.749Z,81.38
2023-02-11T00:28:35.969Z,81.06
2023-02-11T00:29:35.700Z,80.75
2023-02-11T00:30:35.866Z,81.06
2023-02-11T00:31:35.897Z,80.22
2023-02-11T00:32:35.804Z,80.33
2023-02-11T00:33:35.656Z,80.33
2023-02-11T00:34:35.707Z,81.31
2023-02-11T00:35:35.634Z,82.04
2023-02-11T00:36:35.701Z,82.26
2023-02-11T00:37:35.596Z,82.26
2023-02-11T00:38:35.602Z,82.15
2023-02-11T00:39:35.569Z,81.84
2023-02-11T00:40:35.664Z,81.52
2023-02-11T00:41:35.533Z,81.31
2023-02-11T00:42:35.531Z,80.57
2023-02-11T00:43:35.520Z,81.10
2023-02-11T00:44:35.597Z,81.73
2023-02-11T00:45:35.482Z,82.04
2023-02-11T00:46:35.667Z,82.15
2023-02-11T00:47:35.627Z,82.04
2023-02-11T00:48:35.448Z,81.94
2023-02-11T00:49:35.599Z,82.04
2023-02-11T00:50:35.451Z,82.29
2023-02-11T00:51:35.624Z,82.71
2023-02-11T00:52:35.386Z,82.71
2023-02-11T00:53:35.422Z,82.61
2023-02-11T00:54:35.392Z,82.40
2023-02-11T00:55:35.442Z,82.50
2023-02-11T00:56:35.345Z,82.61
2023-02-11T00:57:35.481Z,82.71
2023-02-11T00:58:35.341Z,82.86
2023-02-11T00:59:35.534Z,82.97
2023-02-11T01:00:35.323Z,83.17
2023-02-11T01:01:35.694Z,82.97
2023-02-11T01:02:35.266Z,82.86
2023-02-11T01:03:35.395Z,82.97
2023-02-11T01:04:35.245Z,82.97
2023-02-11T01:05:35.519Z,82.86
2023-02-11T01:06:35.264Z,82.75
2023-02-11T01:07:35.321Z,82.86
2023-02-11T01:08:35.216Z,82.97
2023-02-11T01:09:35.200Z,83.17
2023-02-11T01:10:35.221Z,83.17
2023-02-11T01:11:35.172Z,83.39
2023-02-11T01:12:36.589Z,83.49
2023-02-11T01:13:35.143Z,83.53
2023-02-11T01:14:35.260Z,83.59
2023-02-11T01:15:35.141Z,83.49
2023-02-11T01:16:35.321Z,83.49
2023-02-11T01:17:35.135Z,83.39
2023-02-11T01:18:35.281Z,83.39
2023-02-11T01:19:35.075Z,83.49
2023-02-11T01:20:35.092Z,83.49
2023-02-11T01:21:35.080Z,83.28
2023-02-11T01:22:35.144Z,83.07
2023-02-11T01:23:35.023Z,83.03
2023-02-11T01:24:35.138Z,82.40
2023-02-11T01:25:35.012Z,82.08
2023-02-11T01:26:35.024Z,82.29
2023-02-11T01:27:35.004Z,82.50
2023-02-11T01:28:35.137Z,82.71
2023-02-11T01:29:35.062Z,82.97
2023-02-11T01:30:34.925Z,83.49
2023-02-11T01:31:35.291Z,83.81
2023-02-11T01:32:34.900Z,83.91
2023-02-11T01:33:35.058Z,84.47
2023-02-11T01:34:34.915Z,84.89
2023-02-11T01:35:34.905Z,85.11
2023-02-11T01:36:34.850Z,85.53
2023-02-11T01:37:34.917Z,85.38
2023-02-11T01:38:34.857Z,85.17
2023-02-11T01:39:35.044Z,84.86
2023-02-11T01:40:34.787Z,84.33
2023-02-11T01:41:34.835Z,84.23
2023-02-11T01:42:34.753Z,83.87
2023-02-11T01:43:34.906Z,83.45
2023-02-11T01:44:34.773Z,83.24
2023-02-11T01:45:34.878Z,83.24
2023-02-11T01:46:34.804Z,83.34
2023-02-11T01:47:34.891Z,83.34
2023-02-11T01:48:34.682Z,83.34
2023-02-11T01:49:34.870Z,83.34
2023-02-11T01:50:34.790Z,83.24
2023-02-11T01:51:34.686Z,83.14
2023-02-11T01:52:34.808Z,83.24
2023-02-11T01:53:34.648Z,83.14
2023-02-11T01:54:34.869Z,82.92
2023-02-11T01:55:34.826Z,82.82
2023-02-11T01:56:34.581Z,82.40
2023-02-11T01:57:34.658Z,82.08
2023-02-11T01:58:34.571Z,81.98
2023-02-11T01:59:34.781Z,81.98
2023-02-11T02:00:40.754Z,81.73
2023-02-11T02:01:34.653Z,81.62
2023-02-11T02:02:34.536Z,81.84
2023-02-11T02:03:34.711Z,82.04
2023-02-11T02:04:34.526Z,81.94
2023-02-11T02:05:34.623Z,81.31
2023-02-11T02:06:34.507Z,81.20
2023-02-11T02:07:34.620Z,81.20
2023-02-11T02:08:34.444Z,81.10
2023-02-11T02:09:34.516Z,81.31
2023-02-11T02:10:34.432Z,81.20
2023-02-11T02:11:34.550Z,81.56
2023-02-11T02:12:34.422Z,81.98
2023-02-11T02:13:34.576Z,82.50
2023-02-11T02:14:34.405Z,82.97
2023-02-11T02:15:34.576Z,82.86
2023-02-11T02:16:34.573Z,82.97
2023-02-11T02:17:34.350Z,83.28
2023-02-11T02:18:34.414Z,83.49
2023-02-11T02:19:34.364Z,83.70
2023-02-11T02:20:34.399Z,83.91
2023-02-11T02:21:34.349Z,84.27
2023-02-11T02:22:34.275Z,84.69
2023-02-11T02:23:34.325Z,85.00
2023-02-11T02:24:34.275Z,85.00
2023-02-11T02:25:34.318Z,84.47
2023-02-11T02:26:34.255Z,84.33
2023-02-11T02:27:34.441Z,84.23
2023-02-11T02:28:34.228Z,84.33
2023-02-11T02:29:34.256Z,83.91
2023-02-11T02:30:34.180Z,83.70
2023-02-11T02:31:34.306Z,83.59
2023-02-11T02:32:34.163Z,83.59
2023-02-11T02:33:34.293Z,83.95
2023-02-11T02:34:34.111Z,84.27
2023-02-11T02:35:34.200Z,84.37
2023-02-11T02:36:34.070Z,84.47
2023-02-11T02:37:34.256Z,84.69
2023-02-11T02:38:34.102Z,84.79
2023-02-11T02:39:34.213Z,84.79
2023-02-11T02:40:34.031Z,85.11
2023-02-11T02:41:34.112Z,85.21
2023-02-11T02:42:34.141Z,84.96
2023-02-11T02:43:34.020Z,84.23
2023-02-11T02:44:34.157Z,83.70
2023-02-11T02:45:33.986Z,83.70
2023-02-11T02:46:34.135Z,83.49
2023-02-11T02:47:34.027Z,83.39
2023-02-11T02:48:33.993Z,83.91
2023-02-11T02:49:34.070Z,84.37
2023-02-11T02:50:33.958Z,84.69
2023-02-11T02:51:33.978Z,85.00
2023-02-11T02:52:33.902Z,85.11
2023-02-11T02:53:34.050Z,85.31
2023-02-11T02:54:33.887Z,85.53
2023-02-11T02:55:34.025Z,85.53
2023-02-11T02:56:33.875Z,85.67
2023-02-11T02:57:33.921Z,85.67
2023-02-11T02:58:33.836Z,85.78
2023-02-11T02:59:33.878Z,85.78
2023-02-11T03:00:33.872Z,85.67
2023-02-11T03:01:33.854Z,85.78
2023-02-11T03:02:33.794Z,85.78
2023-02-11T03:03:33.910Z,85.78
2023-02-11T03:04:33.779Z,85.99
2023-02-11T03:05:33.889Z,86.10
2023-02-11T03:06:33.740Z,86.10
2023-02-11T03:07:33.789Z,86.10
2023-02-11T03:08:33.863Z,86.20
2023-02-11T03:09:33.705Z,86.30
2023-02-11T03:10:33.770Z,86.20
2023-02-11T03:11:33.681Z,85.88
2023-02-11T03:12:33.743Z,85.57
2023-02-11T03:13:33.848Z,85.36
2023-02-11T03:14:33.650Z,85.36
2023-02-11T03:15:33.777Z,85.04
2023-02-11T03:16:33.708Z,85.25
2023-02-11T03:17:33.664Z,85.21
2023-02-11T03:18:33.603Z,85.11
2023-02-11T03:19:33.660Z,84.89
2023-02-11T03:20:33.603Z,84.79
2023-02-11T03:21:33.672Z,84.69
2023-02-11T03:22:33.539Z,84.69
2023-02-11T03:23:33.611Z,84.89
2023-02-11T03:24:33.516Z,84.89
2023-02-11T03:25:33.624Z,84.58
2023-02-11T03:26:33.512Z,83.84
2023-02-11T03:27:33.673Z,83.95
2023-02-11T03:28:33.582Z,84.16
2023-02-11T03:29:33.639Z,84.05
2023-02-11T03:30:33.442Z,83.84
2023-02-11T03:31:33.696Z,84.05
2023-02-11T03:32:33.444Z,84.16
2023-02-11T03:33:33.571Z,84.27
2023-02-11T03:34:33.476Z,84.16
2023-02-11T03:35:33.368Z,84.16
2023-02-11T03:36:33.450Z,84.23
2023-02-11T03:37:33.339Z,84.33
2023-02-11T03:38:33.412Z,84.44
2023-02-11T03:39:33.392Z,84.69
2023-02-11T03:40:33.316Z,85.00
2023-02-11T03:41:33.450Z,85.31
2023-02-11T03:42:33.321Z,85.42
2023-02-11T03:43:33.423Z,85.63
2023-02-11T03:44:33.269Z,85.85
2023-02-11T03:45:33.382Z,85.95
2023-02-11T03:46:33.240Z,85.85
2023-02-11T03:47:33.406Z,85.63
2023-02-11T03:48:33.232Z,85.63
2023-02-11T03:49:33.259Z,85.63
2023-02-11T03:50:33.184Z,85.53
2023-02-11T03:51:33.291Z,85.42
2023-02-11T03:52:33.178Z,85.31
2023-02-11T03:53:33.354Z,84.89
2023-02-11T03:54:33.139Z,84.65
2023-02-11T03:55:33.318Z,84.65
2023-02-11T03:56:33.135Z,84.86
2023-02-11T03:57:33.337Z,84.96
2023-02-11T03:58:33.114Z,85.07
2023-02-11T03:59:33.130Z,85.07
2023-02-11T04:00:33.161Z,84.96
2023-02-11T04:01:33.106Z,84.71
2023-02-11T04:02:33.179Z,84.61
2023-02-11T04:03:33.104Z,84.50
2023-02-11T04:04:33.263Z,84.19
2023-02-11T04:05:33.197Z,83.98
2023-02-11T04:06:32.987Z,83.91
2023-02-11T04:07:33.186Z,84.01
2023-02-11T04:08:32.984Z,84.12
2023-02-11T04:09:33.030Z,84.44
2023-02-11T04:10:33.072Z,84.44
2023-02-11T04:11:32.912Z,84.54
2023-02-11T04:12:33.039Z,84.65
2023-02-11T04:13:32.920Z,84.82
2023-02-11T04:14:32.950Z,84.82
2023-02-11T04:15:32.897Z,85.03
2023-02-11T04:16:33.143Z,85.07
2023-02-11T04:17:32.850Z,85.17
2023-02-11T04:18:32.966Z,85.13
2023-02-11T04:19:32.828Z,85.03
2023-02-11T04:20:32.948Z,84.92
2023-02-11T04:21:32.773Z,84.82
2023-02-11T04:22:32.906Z,84.61
2023-02-11T04:23:32.761Z,84.61
2023-02-11T04:24:32.819Z,84.61
2023-02-11T04:25:32.737Z,84.82
2023-02-11T04:26:32.869Z,84.92
2023-02-11T04:27:32.740Z,84.82
2023-02-11T04:28:32.899Z,85.03
2023-02-11T04:29:32.682Z,85.03
2023-02-11T04:30:32.818Z,84.92
2023-02-11T04:31:32.807Z,84.96
2023-02-11T04:32:32.710Z,85.07
2023-02-11T04:33:32.786Z,85.28
2023-02-11T04:34:32.691Z,85.28
2023-02-11T04:35:32.687Z,85.38
2023-02-11T04:36:32.747Z,85.49
2023-02-11T04:37:32.600Z,85.28
2023-02-11T04:38:32.708Z,84.96
2023-02-11T04:39:32.570Z,84.82
2023-02-11T04:40:32.828Z,84.82
2023-02-11T04:41:32.544Z,84.92
2023-02-11T04:42:32.682Z,84.82
2023-02-11T04:43:32.563Z,84.50
2023-02-11T04:44:32.659Z,84.40
2023-02-11T04:45:32.504Z,84.29
2023-02-11T04:46:32.692Z,84.29
2023-02-11T04:47:32.470Z,84.19
2023-02-11T04:48:32.577Z,84.25
2023-02-11T04:49:32.483Z,84.05
2023-02-11T04:50:32.598Z,83.83
2023-02-11T04:51:32.437Z,83.94
2023-02-11T04:52:32.504Z,84.05
2023-02-11T04:53:32.446Z,84.05
2023-02-11T04:54:32.678Z,84.15
2023-02-11T04:55:32.399Z,83.83
2023-02-11T04:56:32.525Z,83.73
2023-02-11T04:57:32.353Z,83.83
2023-02-11T04:58:32.448Z,83.73
2023-02-11T04:59:32.368Z,83.52
2023-02-11T05:00:32.471Z,83.56
2023-02-11T05:01:32.338Z,83.56
2023-02-11T05:02:32.469Z,83.56
2023-02-11T05:03:32.286Z,83.87
2023-02-11T05:04:32.925Z,83.98
2023-02-11T05:05:32.260Z,83.98
2023-02-11T05:06:32.397Z,83.98
2023-02-11T05:07:32.231Z,84.29
2023-02-11T05:08:32.301Z,84.40
2023-02-11T05:09:32.236Z,84.71
2023-02-11T05:10:32.320Z,84.92
2023-02-11T05:11:32.171Z,85.13
2023-02-11T05:12:32.354Z,85.38
2023-02-11T05:13:32.143Z,85.70
2023-02-11T05:14:32.284Z,86.02
2023-02-11T05:15:32.178Z,86.22
2023-02-11T05:16:32.301Z,86.33
2023-02-11T05:17:32.115Z,86.44
2023-02-11T05:18:32.381Z,86.40
2023-02-11T05:19:32.065Z,86.08
2023-02-11T05:20:32.244Z,85.87
2023-02-11T05:21:32.080Z,85.41
2023-02-11T05:22:32.192Z,85.20
2023-02-11T05:23:32.023Z,85.10
2023-02-11T05:24:32.324Z,85.31
2023-02-11T05:25:32.040Z,85.41
2023-02-11T05:26:32.227Z,85.73
2023-02-11T05:27:31.989Z,85.52
2023-02-11T05:28:32.285Z,85.31
2023-02-11T05:29:31.958Z,85.41
2023-02-11T05:30:32.086Z,85.37
2023-02-11T05:31:31.950Z,85.27
2023-02-11T05:32:32.130Z,85.37
2023-02-11T05:33:31.931Z,85.23
2023-02-11T05:34:32.088Z,85.33
2023-02-11T05:35:31.895Z,84.91
2023-02-11T05:36:33.456Z,84.70
2023-02-11T05:37:31.898Z,84.35
2023-02-11T05:38:32.165Z,83.93
2023-02-11T05:39:31.834Z,83.40
2023-02-11T05:40:32.034Z,82.88
2023-02-11T05:41:31.847Z,82.88
2023-02-11T05:42:31.934Z,83.09
2023-02-11T05:43:31.776Z,83.51
2023-02-11T05:44:31.934Z,83.40
2023-02-11T05:45:31.756Z,83.51
2023-02-11T05:46:31.951Z,83.40
2023-02-11T05:47:31.769Z,83.40
2023-02-11T05:48:31.866Z,83.09
2023-02-11T05:49:31.862Z,82.98
2023-02-11T05:50:31.725Z,82.88
2023-02-11T05:51:31.874Z,82.88
2023-02-11T05:52:31.713Z,82.98
2023-02-11T05:53:31.915Z,83.09
2023-02-11T05:54:31.821Z,82.98
2023-02-11T05:55:31.630Z,82.88
2023-02-11T05:56:31.834Z,82.88
2023-02-11T05:57:31.625Z,82.98
2023-02-11T05:58:31.831Z,83.09
2023-02-11T05:59:31.571Z,82.88
2023-02-11T06:00:31.607Z,83.09
2023-02-11T06:01:31.644Z,83.09
2023-02-11T06:02:31.646Z,82.46
2023-02-11T06:03:31.715Z,82.35
2023-02-11T06:04:31.602Z,82.56
2023-02-11T06:05:31.669Z,82.67
2023-02-11T06:06:31.505Z,82.88
2023-02-11T06:07:31.682Z,82.98
2023-02-11T06:08:31.515Z,82.78
2023-02-11T06:09:31.654Z,82.98
2023-02-11T06:10:31.460Z,83.30
2023-02-11T06:11:31.644Z,83.26
2023-02-11T06:12:31.442Z,83.58
2023-02-11T06:13:31.517Z,83.47
2023-02-11T06:14:31.420Z,83.37
2023-02-11T06:15:31.619Z,83.47
2023-02-11T06:16:31.436Z,83.47
2023-02-11T06:17:31.598Z,83.47
2023-02-11T06:18:31.363Z,83.68
2023-02-11T06:19:31.456Z,83.58
2023-02-11T06:20:31.551Z,83.47
2023-02-11T06:21:42.753Z,83.47
2023-02-11T06:22:31.320Z,83.47
2023-02-11T06:23:31.501Z,83.26
2023-02-11T06:24:51.363Z,82.63
2023-02-11T06:25:31.300Z,82.42
2023-02-11T06:26:31.297Z,82.32
2023-02-11T06:27:31.406Z,82.10
2023-02-11T06:28:31.417Z,81.79
2023-02-11T06:29:31.471Z,81.58
2023-02-11T06:30:31.291Z,81.62
2023-02-11T06:31:31.582Z,82.04
2023-02-11T06:32:46.970Z,82.56
2023-02-11T06:33:31.807Z,82.56
2023-02-11T06:34:31.265Z,82.78
2023-02-11T06:35:31.142Z,82.63
2023-02-11T06:36:31.465Z,82.74
2023-02-11T06:37:31.138Z,82.63
2023-02-11T06:38:31.326Z,82.53
2023-02-11T06:39:31.142Z,82.63
2023-02-11T06:40:31.334Z,82.74
2023-02-11T06:41:31.349Z,82.53
2023-02-11T06:42:31.091Z,82.32
2023-02-11T06:43:31.277Z,82.21
2023-02-11T06:44:31.062Z,82.00
2023-02-11T06:45:31.118Z,81.79
2023-02-11T06:46:31.208Z,81.93
2023-02-11T06:47:31.008Z,82.67
2023-02-11T06:48:31.243Z,83.20
2023-02-11T06:49:31.072Z,83.40
2023-02-11T06:50:31.091Z,83.47
2023-02-11T06:51:31.194Z,83.37
2023-02-11T06:52:30.950Z,82.95
2023-02-11T06:53:31.274Z,82.53
2023-02-11T06:54:30.978Z,82.21
2023-02-11T06:55:31.006Z,82.00
2023-02-11T06:56:30.905Z,81.90
2023-02-11T06:57:31.055Z,81.90
2023-02-11T06:58:30.878Z,81.90
2023-02-11T06:59:31.065Z,82.00
2023-02-11T07:00:30.870Z,82.53
2023-02-11T07:01:31.123Z,82.67
2023-02-11T07:02:30.822Z,83.20
2023-02-11T07:03:31.142Z,83.47
2023-02-11T07:04:30.917Z,83.79
2023-02-11T07:05:31.094Z,83.68
2023-02-11T07:06:30.824Z,83.58
2023-02-11T07:07:33.921Z,83.68
2023-02-11T07:08:30.732Z,83.79
2023-02-11T07:09:30.978Z,83.89
2023-02-11T07:10:30.818Z,84.31
2023-02-11T07:11:30.923Z,84.63
2023-02-11T07:12:30.885Z,84.84
2023-02-11T07:13:30.699Z,84.52
2023-02-11T07:14:30.948Z,84.06
2023-02-11T07:15:30.694Z,83.12
2023-02-11T07:16:33.892Z,82.91
2023-02-11T07:17:30.768Z,82.81
2023-02-11T07:18:30.612Z,82.81
2023-02-11T07:19:30.774Z,82.49
2023-02-11T07:20:30.586Z,82.49
2023-02-11T07:21:30.887Z,82.59
2023-02-11T07:22:30.563Z,82.81
2023-02-11T07:23:30.698Z,83.01
2023-02-11T07:24:30.530Z,82.91
2023-02-11T07:25:30.717Z,82.70
2023-02-11T07:26:30.591Z,82.87
2023-02-11T07:27:30.873Z,82.56
2023-02-11T07:28:30.551Z,82.70
2023-02-11T07:29:30.660Z,82.81
2023-02-11T07:30:30.475Z,82.14
2023-02-11T07:31:30.874Z,81.82
2023-02-11T07:32:30.492Z,81.72
2023-02-11T07:33:30.670Z,81.61
2023-02-11T07:34:30.459Z,81.82
2023-02-11T07:35:30.715Z,81.40
2023-02-11T07:36:30.499Z,81.72
2023-02-11T07:37:30.628Z,82.10
2023-02-11T07:38:30.732Z,82.10
2023-02-11T07:39:30.427Z,82.20
2023-02-11T07:40:30.497Z,81.16
2023-02-11T07:41:30.375Z,80.94
2023-02-11T07:42:30.511Z,80.94
2023-02-11T07:43:30.583Z,80.74
2023-02-11T07:44:30.317Z,80.53
2023-02-11T07:45:30.535Z,80.84
2023-02-11T07:46:30.338Z,81.26
2023-02-11T07:47:30.458Z,81.33
2023-02-11T07:48:30.221Z,81.43
2023-02-11T07:49:30.487Z,81.33
2023-02-11T07:50:30.253Z,80.66
2023-02-11T07:51:30.428Z,80.56
2023-02-11T07:52:30.181Z,80.14
2023-02-11T07:53:30.401Z,80.14
2023-02-11T07:54:30.408Z,79.61
2023-02-11T07:55:30.203Z,79.61
2023-02-11T07:56:30.347Z,79.72
2023-02-11T07:57:30.147Z,79.41
2023-02-11T07:58:30.319Z,79.20
2023-02-11T07:59:30.142Z,79.30
2023-02-11T08:00:30.302Z,79.20
2023-02-11T08:01:30.126Z,79.47
2023-02-11T08:02:30.309Z,79.47
2023-02-11T08:03:30.098Z,79.58
2023-02-11T08:04:30.144Z,79.05
2023-02-11T08:05:30.055Z,79.27
2023-02-11T08:06:30.322Z,79.27
2023-02-11T08:07:30.023Z,79.79
2023-02-11T08:08:30.285Z,79.75
2023-02-11T08:09:32.217Z,79.33
2023-02-11T08:10:29.976Z,78.39
2023-02-11T08:11:30.344Z,78.39
2023-02-11T08:12:29.978Z,78.50
2023-02-11T08:13:30.232Z,78.67
2023-02-11T08:14:29.913Z,78.46
2023-02-11T08:15:30.158Z,78.36
2023-02-11T08:16:30.079Z,78.46
2023-02-11T08:17:30.239Z,79.30
2023-02-11T08:18:29.861Z,78.56
2023-02-11T08:19:30.184Z,78.15
2023-02-11T08:20:29.861Z,78.25
2023-02-11T08:21:30.093Z,78.53
2023-02-11T08:22:29.904Z,78.01
2023-02-11T08:23:30.025Z,77.76
2023-02-11T08:24:29.813Z,77.45
2023-02-11T08:25:30.059Z,76.61
2023-02-11T08:26:29.742Z,77.87
2023-02-11T08:27:29.976Z,77.45
2023-02-11T08:28:29.815Z,77.45
2023-02-11T08:29:30.013Z,77.45
2023-02-11T08:30:29.721Z,77.41
2023-02-11T08:31:30.118Z,77.73
2023-02-11T08:32:29.717Z,77.10
2023-02-11T08:33:29.954Z,76.79
2023-02-11T08:34:29.653Z,76.86
2023-02-11T08:35:29.822Z,76.33
2023-02-11T08:36:49.611Z,75.71
2023-02-11T08:37:33.050Z,75.53
2023-02-11T08:38:29.895Z,75.12
2023-02-11T08:39:29.607Z,75.43
2023-02-11T08:40:29.774Z,76.12
2023-02-11T08:41:29.614Z,75.92
2023-02-11T08:42:29.700Z,76.23
2023-02-11T08:43:29.610Z,75.98
2023-02-11T08:44:29.803Z,75.98
2023-02-11T08:45:29.629Z,75.85
2023-02-11T08:46:29.856Z,75.85
2023-02-11T08:47:29.555Z,74.35
2023-02-11T08:48:29.631Z,73.72
2023-02-11T08:49:29.514Z,73.49
2023-02-11T08:50:29.650Z,72.86
2023-02-11T08:51:29.463Z,73.24
2023-02-11T08:52:29.665Z,71.47
2023-02-11T08:53:29.438Z,72.51
2023-02-11T08:54:29.694Z,71.47
2023-02-11T08:55:29.439Z,71.26
2023-02-11T08:56:29.716Z,71.47
2023-02-11T08:57:29.397Z,71.54
2023-02-11T08:58:29.532Z,72.06
2023-02-11T08:59:29.608Z,72.58
2023-02-11T09:00:30.008Z,71.96
2023-02-11T09:01:29.463Z,71.12
2023-02-11T09:02:29.646Z,70.68
2023-02-11T09:03:29.318Z,70.05
2023-02-11T09:04:29.553Z,70.47
2023-02-11T09:05:29.323Z,70.12
2023-02-11T09:06:29.393Z,69.09
2023-02-11T09:07:29.257Z,69.60
2023-02-11T09:08:29.394Z,68.77
2023-02-11T09:09:29.237Z,69.19
2023-02-11T09:10:29.495Z,68.04
2023-02-11T09:11:29.272Z,67.63
2023-02-11T09:12:29.340Z,67.73
2023-02-11T09:13:29.188Z,67.83
2023-02-11T09:14:29.300Z,68.12
2023-02-11T09:15:29.168Z,68.01
2023-02-11T09:16:29.418Z,67.88
2023-02-11T09:17:29.406Z,66.84
2023-02-11T09:18:29.118Z,67.54
2023-02-11T09:19:29.305Z,67.33
2023-02-11T09:20:29.097Z,67.64
2023-02-11T09:21:29.283Z,67.43
2023-02-11T09:22:29.292Z,66.50
2023-02-11T09:23:29.756Z,66.21
2023-02-11T09:24:29.195Z,67.36
2023-02-11T09:25:29.030Z,68.05
2023-02-11T09:26:29.290Z,67.85
2023-02-11T09:27:29.034Z,68.47
2023-02-11T09:28:29.200Z,68.57
2023-02-11T09:29:28.984Z,68.02
2023-02-11T09:30:29.181Z,66.88
2023-02-11T09:31:29.163Z,66.57
2023-02-11T09:32:29.027Z,67.89
2023-02-11T09:33:28.968Z,68.69
2023-02-11T09:34:29.076Z,66.41
2023-02-11T09:35:28.923Z,65.96
2023-02-11T09:36:29.101Z,66.89
2023-02-11T09:37:28.885Z,66.55
2023-02-11T09:38:29.106Z,66.00
2023-02-11T09:39:28.890Z,65.66
2023-02-11T09:40:28.872Z,64.42
2023-02-11T09:41:28.831Z,65.35
2023-02-11T09:42:28.988Z,64.28
2023-02-11T09:43:29.017Z,64.52
2023-02-11T09:44:28.831Z,63.46
2023-02-11T09:45:28.834Z,63.53
2023-02-11T09:46:28.810Z,63.47
2023-02-11T09:47:28.880Z,62.51
2023-02-11T09:48:28.836Z,61.24
2023-02-11T09:49:28.771Z,60.49
2023-02-11T09:50:28.888Z,59.74
2023-02-11T09:51:28.746Z,57.73
2023-02-11T09:52:28.868Z,56.10
2023-02-11T09:53:28.687Z,53.12
2023-02-11T09:54:28.632Z,50.10
2023-02-11T09:55:28.866Z,47.08
2023-02-11T09:56:28.639Z,43.00
2023-02-11T09:57:29.416Z,40.58
2023-02-11T09:58:28.616Z,39.39
2023-02-11T09:59:28.736Z,38.47
2023-02-11T10:00:28.580Z,38.83
2023-02-11T10:01:28.736Z,40.33
2023-02-11T10:02:28.538Z,41.41
2023-02-11T10:03:28.806Z,42.65
2023-02-11T10:04:28.599Z,41.92
2023-02-11T10:05:28.623Z,42.43
2023-02-11T10:06:28.569Z,41.94
2023-02-11T10:07:28.732Z,39.59
2023-02-11T10:08:28.466Z,37.55
2023-02-11T10:10:24.204Z,32.76
2023-02-11T10:11:31.526Z,32.03
2023-02-11T10:12:23.902Z,32.44
2023-02-11T10:13:24.079Z,31.82
2023-02-11T10:14:24.084Z,32.06
2023-02-11T10:15:23.854Z,31.86
2023-02-11T10:16:24.040Z,31.07
2023-02-11T10:17:23.805Z,31.22
2023-02-11T10:18:23.853Z,31.85
2023-02-11T10:19:23.805Z,31.87
2023-02-11T10:20:23.987Z,33.02
2023-02-11T10:21:23.815Z,33.78
2023-02-11T10:22:23.874Z,34.72
2023-02-11T10:23:23.725Z,34.31
2023-02-11T10:24:23.911Z,34.55
2023-02-11T10:25:23.709Z,32.12
2023-02-11T10:26:23.891Z,29.69
2023-02-11T10:27:23.692Z,27.96
2023-02-11T10:28:24.011Z,28.02
2023-02-11T10:29:23.626Z,30.01
2023-02-11T10:30:23.781Z,31.78
2023-02-11T10:31:23.791Z,32.82
2023-02-11T10:32:23.747Z,33.09
2023-02-11T10:33:23.662Z,32.59
2023-02-11T10:34:23.800Z,32.39
2023-02-11T10:35:23.753Z,31.59
2023-02-11T10:36:23.613Z,29.18
2023-02-11T10:37:23.787Z,29.05
2023-02-11T10:38:23.586Z,30.93
2023-02-11T10:39:23.744Z,31.82
2023-02-11T10:40:23.515Z,34.09
2023-02-11T10:41:23.742Z,35.36
2023-02-11T10:42:23.507Z,36.34
2023-02-11T10:43:23.489Z,37.21
2023-02-11T10:44:23.454Z,39.50
2023-02-11T10:45:23.568Z,40.35
2023-02-11T10:46:23.479Z,40.80
2023-02-11T10:47:23.564Z,41.33
2023-02-11T10:48:23.441Z,43.30
2023-02-11T10:49:23.417Z,43.85
2023-02-11T10:50:23.395Z,45.10
2023-02-11T10:51:23.515Z,45.45
2023-02-11T10:52:23.410Z,46.70
2023-02-11T10:53:23.448Z,46.66
2023-02-11T10:54:23.379Z,45.41
2023-02-11T10:55:23.380Z,43.85
2023-02-11T10:56:23.377Z,42.41
2023-02-11T10:57:23.269Z,41.21
2023-02-11T10:58:23.656Z,40.37
2023-02-11T10:59:23.314Z,38.35
2023-02-11T11:00:23.452Z,36.27
2023-02-11T11:01:25.048Z,32.51
2023-02-11T11:02:23.225Z,30.08
2023-02-11T11:03:23.334Z,27.50
2023-02-11T11:04:23.264Z,26.16
2023-02-11T11:05:23.249Z,26.03
2023-02-11T11:06:23.226Z,26.37
2023-02-11T11:07:23.269Z,25.56
2023-02-11T11:08:23.191Z,26.25
2023-02-11T11:09:23.296Z,25.37
2023-02-11T11:10:23.128Z,26.46
2023-02-11T11:11:23.297Z,25.21
2023-02-11T11:12:23.105Z,24.71
2023-02-11T11:13:23.314Z,25.61
2023-02-11T11:14:23.117Z,25.38
2023-02-11T11:15:23.176Z,24.17
2023-02-11T11:16:23.254Z,23.36
2023-02-11T11:17:23.163Z,24.16
2023-02-11T11:18:23.696Z,25.06
2023-02-11T11:19:24.018Z,24.16
2023-02-11T11:20:23.029Z,23.37
2023-02-11T11:21:23.072Z,23.86
2023-02-11T11:22:23.172Z,23.35
2023-02-11T11:23:23.064Z,23.94
2023-02-11T11:24:24.968Z,24.05
2023-02-11T11:25:23.300Z,23.36
2023-02-11T11:26:23.168Z,24.11
2023-02-11T11:27:22.897Z,24.95
2023-02-11T11:28:23.149Z,25.59
2023-02-11T11:29:22.899Z,26.29
2023-02-11T11:30:22.915Z,28.42
2023-02-11T11:31:22.992Z,28.16
2023-02-11T11:32:22.998Z,29.60
2023-02-11T11:33:24.888Z,30.11
2023-02-11T11:34:37.400Z,30.12
2023-02-11T11:35:23.373Z,30.34
2023-02-11T11:36:23.801Z,30.43
2023-02-11T11:37:22.900Z,30.52
2023-02-11T11:38:23.005Z,30.43
2023-02-11T11:39:22.751Z,30.69
2023-02-11T11:40:22.873Z,29.81
2023-02-11T11:41:22.738Z,29.88
2023-02-11T11:42:22.848Z,30.05
2023-02-11T11:43:23.479Z,29.02
2023-02-11T11:44:22.742Z,28.81
2023-02-11T11:45:25.364Z,27.67
2023-02-11T11:46:22.871Z,27.36
2023-02-11T11:47:22.965Z,27.26
2023-02-11T11:48:22.900Z,27.22
2023-02-11T11:49:22.652Z,26.09
2023-02-11T11:50:27.317Z,25.77
2023-02-11T11:51:22.696Z,24.87
2023-02-11T11:52:22.771Z,25.07
2023-02-11T11:53:22.593Z,25.85
2023-02-11T11:54:22.792Z,27.29
2023-02-11T11:55:22.584Z,29.05
2023-02-11T11:56:22.943Z,30.60
2023-02-11T11:57:22.508Z,31.36
2023-02-11T11:58:22.748Z,32.64
2023-02-11T11:59:22.508Z,34.03
2023-02-11T12:00:22.743Z,36.04
2023-02-11T12:01:22.477Z,37.89
2023-02-11T12:02:22.771Z,39.57
2023-02-11T12:03:22.571Z,40.09
2023-02-11T12:04:22.667Z,41.09
2023-02-11T12:05:22.440Z,40.48
2023-02-11T12:06:22.546Z,39.47
2023-02-11T12:07:25.396Z,41.01
2023-02-11T12:08:22.578Z,40.70
2023-02-11T12:09:22.617Z,41.42
2023-02-11T12:10:22.480Z,40.61
2023-02-11T12:11:22.488Z,41.21
2023-02-11T12:12:22.419Z,40.59
2023-02-11T12:13:22.417Z,39.23
2023-02-11T12:14:22.374Z,36.65
2023-02-11T12:15:22.392Z,36.81
2023-02-11T12:16:22.347Z,36.68
2023-02-11T12:17:22.433Z,35.55
2023-02-11T12:18:22.788Z,36.17
2023-02-11T12:19:22.423Z,36.19
2023-02-11T12:20:22.528Z,34.95
2023-02-11T12:21:22.406Z,36.22
2023-02-11T12:22:22.248Z,36.96
2023-02-11T12:23:22.437Z,38.20
2023-02-11T12:24:23.282Z,37.76
2023-02-11T12:25:22.416Z,36.57
2023-02-11T12:26:22.167Z,35.52
2023-02-11T12:27:22.467Z,34.22
2023-02-11T12:28:22.225Z,32.24
2023-02-11T12:29:22.461Z,30.28
2023-02-11T12:30:22.502Z,29.15
2023-02-11T12:31:22.327Z,29.74
2023-02-11T12:32:22.429Z,29.45
2023-02-11T12:33:22.090Z,27.92
2023-02-11T12:34:22.467Z,27.58
2023-02-11T12:35:22.711Z,28.08
2023-02-11T12:36:22.588Z,27.27
2023-02-11T12:37:22.176Z,26.98
2023-02-11T12:38:22.361Z,28.42
2023-02-11T12:39:22.394Z,29.98
2023-02-11T12:40:22.257Z,30.58
2023-02-11T12:41:21.947Z,29.91
2023-02-11T12:42:22.236Z,31.36
2023-02-11T12:43:22.079Z,32.11
2023-02-11T12:44:22.068Z,32.34
2023-02-11T12:45:21.941Z,32.73
2023-02-11T12:46:22.021Z,33.01
2023-02-11T12:47:21.918Z,32.73
2023-02-11T12:48:21.947Z,31.24
2023-02-11T12:49:21.846Z,29.94
2023-02-11T12:50:21.989Z,27.61
2023-02-11T12:51:21.833Z,27.24
2023-02-11T12:52:21.966Z,26.54
2023-02-11T12:53:21.785Z,27.43